createdAt,value
2018-11-28T00:00:01.909Z,8.90
2018-11-28T00:02:29.925Z,9.07
2018-11-28T00:04:57.624Z,9.47
2018-11-28T00:07:29.800Z,9.27
2018-11-28T00:12:53.043Z,9.20
2018-11-28T00:15:20.656Z,9.07
2018-11-28T00:17:48.774Z,8.80
2018-11-28T00:20:18.124Z,9.33
2018-11-28T00:22:45.762Z,9.23
2018-11-28T00:25:14.065Z,9.27
2018-11-28T00:27:41.770Z,9.83
2018-11-28T00:30:13.648Z,9.20
2018-11-28T00:32:41.614Z,9.13
2018-11-28T00:35:11.024Z,9.27
2018-11-28T00:37:38.964Z,9.80
2018-11-28T00:40:07.466Z,8.70
2018-11-28T00:42:35.072Z,9.03
2018-11-28T00:45:03.112Z,9.17
2018-11-28T00:47:30.878Z,8.80
2018-11-28T00:49:58.490Z,9.30
2018-11-28T00:52:26.039Z,8.20
2018-11-28T00:54:53.649Z,9.03
2018-11-28T00:57:21.209Z,8.67
2018-11-28T00:59:48.804Z,9.10
2018-11-28T01:02:16.312Z,9.03
2018-11-28T01:04:44.088Z,8.87
2018-11-28T01:07:11.659Z,8.73
2018-11-28T01:09:39.346Z,8.40
2018-11-28T01:12:07.000Z,8.37
2018-11-28T01:14:34.513Z,8.57
2018-11-28T01:17:02.023Z,8.43
2018-11-28T01:19:29.573Z,9.03
2018-11-28T01:21:57.123Z,9.20
2018-11-28T01:24:24.750Z,8.83
2018-11-28T01:26:52.313Z,8.93
2018-11-28T01:29:19.805Z,8.50
2018-11-28T01:31:47.341Z,8.37
2018-11-28T01:34:14.885Z,8.63
2018-11-28T01:36:42.525Z,9.20
2018-11-28T01:39:10.133Z,9.40
2018-11-28T01:41:37.727Z,8.70
2018-11-28T01:44:05.789Z,8.27
2018-11-28T01:46:33.354Z,8.40
2018-11-28T01:49:00.812Z,7.67
2018-11-28T01:51:28.339Z,7.90
2018-11-28T01:53:55.933Z,8.07
2018-11-28T01:56:23.505Z,8.13
2018-11-28T01:58:51.036Z,7.67
2018-11-28T02:01:18.579Z,8.27
2018-11-28T02:03:46.115Z,8.30
2018-11-28T02:06:13.603Z,7.73
2018-11-28T02:08:41.093Z,7.90
2018-11-28T02:11:08.600Z,7.83
2018-11-28T02:13:36.216Z,8.20
2018-11-28T02:16:03.754Z,8.07
2018-11-28T02:18:31.398Z,7.80
2018-11-28T02:20:58.955Z,7.50
2018-11-28T02:23:26.421Z,7.87
2018-11-28T02:25:53.956Z,7.23
2018-11-28T02:28:21.586Z,7.67
2018-11-28T02:30:49.022Z,7.73
2018-11-28T02:33:16.436Z,7.27
2018-11-28T02:35:43.991Z,7.13
2018-11-28T02:38:11.530Z,7.00
2018-11-28T02:40:39.107Z,7.20
2018-11-28T02:43:06.607Z,7.37
2018-11-28T02:45:34.085Z,7.27
2018-11-28T02:48:01.577Z,6.63
2018-11-28T02:50:29.097Z,7.07
2018-11-28T02:52:56.693Z,7.00
2018-11-28T02:55:24.234Z,7.23
2018-11-28T02:57:51.859Z,6.73
2018-11-28T03:00:21.606Z,6.77
2018-11-28T03:02:49.216Z,7.10
2018-11-28T03:05:16.670Z,7.07
2018-11-28T03:07:44.371Z,7.10
2018-11-28T03:10:22.212Z,7.37
2018-11-28T03:12:49.799Z,7.20
2018-11-28T03:15:19.915Z,7.17
2018-11-28T03:17:47.356Z,6.80
2018-11-28T03:20:14.908Z,6.80
2018-11-28T03:22:42.357Z,7.03
2018-11-28T03:25:10.753Z,7.20
2018-11-28T03:27:38.391Z,6.93
2018-11-28T03:30:10.850Z,7.37
2018-11-28T03:32:38.363Z,7.30
2018-11-28T03:35:07.197Z,7.30
2018-11-28T03:37:34.809Z,7.23
2018-11-28T03:40:02.425Z,7.33
2018-11-28T03:42:29.986Z,7.93
2018-11-28T03:44:57.581Z,7.00
2018-11-28T03:47:25.069Z,6.90
2018-11-28T03:49:52.571Z,7.17
2018-11-28T03:52:20.085Z,8.13
2018-11-28T03:54:47.613Z,6.97
2018-11-28T03:57:15.131Z,7.20
2018-11-28T03:59:42.681Z,7.30
2018-11-28T04:02:10.185Z,7.17
2018-11-28T04:04:37.647Z,7.27
2018-11-28T04:07:05.080Z,6.73
2018-11-28T04:09:32.534Z,6.93
2018-11-28T04:12:00.003Z,6.83
2018-11-28T04:14:27.538Z,6.87
2018-11-28T04:16:55.174Z,7.03
2018-11-28T04:19:22.755Z,6.50
2018-11-28T04:21:50.361Z,6.27
2018-11-28T04:24:17.872Z,7.00
2018-11-28T04:26:45.402Z,6.33
2018-11-28T04:29:12.892Z,6.13
2018-11-28T04:31:40.447Z,6.67
2018-11-28T04:34:07.970Z,6.43
2018-11-28T04:36:35.509Z,6.70
2018-11-28T04:39:04.266Z,6.80
2018-11-28T04:41:31.807Z,6.77
2018-11-28T04:43:59.381Z,6.40
2018-11-28T04:46:26.957Z,7.07
2018-11-28T04:48:54.519Z,6.30
2018-11-28T04:51:22.042Z,6.87
2018-11-28T04:53:49.786Z,6.83
2018-11-28T04:56:17.431Z,6.83
2018-11-28T04:58:44.897Z,6.73
2018-11-28T05:01:12.576Z,7.20
2018-11-28T05:03:39.994Z,6.63
2018-11-28T05:06:07.517Z,6.60
2018-11-28T05:08:34.959Z,6.83
2018-11-28T05:11:02.514Z,7.27
2018-11-28T05:13:30.073Z,6.53
2018-11-28T05:15:57.641Z,7.33
2018-11-28T05:18:25.183Z,6.90
2018-11-28T05:20:52.649Z,7.10
2018-11-28T05:23:20.255Z,7.00
2018-11-28T05:25:47.787Z,6.73
2018-11-28T05:28:15.477Z,7.00
2018-11-28T05:30:43.015Z,7.33
2018-11-28T05:33:10.524Z,7.17
2018-11-28T05:35:38.541Z,7.97
2018-11-28T05:38:10.787Z,9.07
2018-11-28T05:40:38.373Z,9.37
2018-11-28T05:43:05.936Z,8.83
2018-11-28T05:45:33.390Z,9.20
2018-11-28T05:48:00.937Z,9.37
2018-11-28T05:50:28.485Z,8.30
2018-11-28T05:52:56.076Z,8.10
2018-11-28T05:55:23.602Z,8.10
2018-11-28T05:57:51.186Z,8.43
2018-11-28T06:00:31.349Z,8.40
2018-11-28T06:02:58.941Z,7.73
2018-11-28T06:05:26.558Z,7.70
2018-11-28T06:07:54.198Z,7.70
2018-11-28T06:10:21.837Z,7.87
2018-11-28T06:12:49.481Z,7.33
2018-11-28T06:15:17.007Z,7.67
2018-11-28T06:17:44.618Z,7.33
2018-11-28T06:20:12.918Z,7.17
2018-11-28T06:22:40.487Z,7.90
2018-11-28T06:25:16.007Z,8.30
2018-11-28T06:27:37.051Z,8.53
2018-11-28T06:30:07.515Z,9.03
2018-11-28T06:32:35.163Z,8.80
2018-11-28T06:35:02.758Z,9.20
2018-11-28T06:37:30.577Z,9.57
2018-11-28T06:39:58.286Z,9.73
2018-11-28T06:42:25.930Z,12.13
2018-11-28T06:44:53.605Z,10.00
2018-11-28T06:47:23.365Z,9.80
2018-11-28T06:49:50.988Z,9.93
2018-11-28T06:52:18.451Z,12.03
2018-11-28T06:54:46.150Z,9.20
2018-11-28T06:57:13.828Z,10.13
2018-11-28T06:59:41.473Z,10.33
2018-11-28T07:02:09.134Z,9.63
2018-11-28T07:04:36.760Z,10.17
2018-11-28T07:07:04.373Z,11.90
2018-11-28T07:09:31.998Z,11.67
2018-11-28T07:11:59.550Z,11.80
2018-11-28T07:14:27.094Z,11.90
2018-11-28T07:16:54.684Z,13.20
2018-11-28T07:19:22.345Z,11.93
2018-11-28T07:21:49.915Z,12.77
2018-11-28T07:24:17.381Z,12.43
2018-11-28T07:26:44.965Z,12.27
2018-11-28T07:29:12.589Z,13.50
2018-11-28T07:31:40.230Z,12.57
2018-11-28T07:34:07.798Z,12.60
2018-11-28T07:36:35.414Z,12.93
2018-11-28T07:39:03.636Z,13.27
2018-11-28T07:41:31.092Z,13.43
2018-11-28T07:43:58.707Z,12.87
2018-11-28T07:46:26.265Z,13.23
2018-11-28T07:48:53.937Z,13.83
2018-11-28T07:51:21.679Z,13.70
2018-11-28T07:53:49.293Z,13.37
2018-11-28T07:56:16.781Z,13.03
2018-11-28T07:58:44.315Z,13.17
2018-11-28T08:01:11.930Z,12.30
2018-11-28T08:03:39.550Z,12.77
2018-11-28T08:06:07.201Z,12.10
2018-11-28T08:08:37.435Z,12.20
2018-11-28T08:11:07.180Z,13.80
2018-11-28T08:13:34.951Z,12.70
2018-11-28T08:16:02.437Z,12.57
2018-11-28T08:18:30.095Z,12.53
2018-11-28T08:20:57.774Z,12.57
2018-11-28T08:23:25.329Z,11.73
2018-11-28T08:25:52.800Z,14.13
2018-11-28T08:28:20.275Z,13.80
2018-11-28T08:30:47.843Z,12.93
2018-11-28T08:33:15.585Z,12.43
2018-11-28T08:35:43.120Z,12.80
2018-11-28T08:38:10.862Z,12.50
2018-11-28T08:40:38.533Z,12.37
2018-11-28T08:43:06.400Z,12.23
2018-11-28T08:45:34.261Z,12.33
2018-11-28T08:48:01.793Z,12.87
2018-11-28T08:50:34.902Z,12.50
2018-11-28T08:53:02.503Z,11.80
2018-11-28T08:55:30.067Z,12.23
2018-11-28T08:57:57.641Z,12.20
2018-11-28T09:00:25.611Z,11.57
2018-11-28T09:02:54.182Z,12.20
2018-11-28T09:05:21.788Z,11.63
2018-11-28T09:07:49.494Z,12.73
2018-11-28T09:10:18.158Z,12.97
2018-11-28T09:12:46.229Z,12.57
2018-11-28T09:15:15.987Z,12.77
2018-11-28T09:17:43.635Z,12.33
2018-11-28T09:20:12.420Z,11.43
2018-11-28T09:22:40.132Z,11.93
2018-11-28T09:25:08.575Z,13.40
2018-11-28T09:27:36.078Z,12.47
2018-11-28T09:30:05.014Z,13.30
2018-11-28T09:32:32.617Z,11.90
2018-11-28T09:35:00.105Z,11.73
2018-11-28T09:37:27.718Z,11.63
2018-11-28T09:39:55.147Z,12.30
2018-11-28T09:42:22.583Z,12.10
2018-11-28T09:44:50.169Z,12.17
2018-11-28T09:47:17.750Z,11.57
2018-11-28T09:49:45.412Z,11.33
2018-11-28T09:52:12.951Z,10.93
2018-11-28T09:54:40.463Z,11.47
2018-11-28T09:57:08.063Z,11.53
2018-11-28T09:59:35.769Z,10.50
2018-11-28T10:02:03.421Z,10.30
2018-11-28T10:04:31.016Z,12.27
2018-11-28T10:06:58.629Z,12.23
2018-11-28T10:09:26.246Z,10.93
2018-11-28T10:11:53.859Z,11.13
2018-11-28T10:14:21.335Z,11.73
2018-11-28T10:16:49.499Z,11.70
2018-11-28T10:19:16.498Z,11.33
2018-11-28T10:21:44.133Z,12.00
2018-11-28T10:24:11.679Z,11.37
2018-11-28T10:26:39.382Z,11.20
2018-11-28T10:29:07.034Z,12.27
2018-11-28T10:31:34.872Z,11.70
2018-11-28T10:34:02.492Z,11.63
2018-11-28T10:36:30.157Z,12.17
2018-11-28T10:38:57.758Z,11.83
2018-11-28T10:41:25.276Z,12.40
2018-11-28T10:43:52.902Z,11.37
2018-11-28T10:46:20.508Z,10.87
2018-11-28T10:48:51.988Z,11.67
2018-11-28T10:51:19.596Z,11.43
2018-11-28T10:53:47.159Z,12.20
2018-11-28T10:56:14.615Z,11.67
2018-11-28T10:58:42.068Z,11.83
2018-11-28T11:01:15.156Z,12.47
2018-11-28T11:03:58.076Z,11.60
2018-11-28T11:06:31.377Z,12.23
2018-11-28T11:09:05.625Z,12.07
2018-11-28T11:11:38.848Z,13.27
2018-11-28T11:14:11.980Z,11.93
2018-11-28T11:16:39.684Z,13.10
2018-11-28T11:19:07.373Z,13.30
2018-11-28T11:21:35.001Z,13.97
2018-11-28T11:24:02.613Z,15.20
2018-11-28T11:26:30.276Z,14.17
2018-11-28T11:28:57.967Z,14.53
2018-11-28T11:31:25.660Z,14.87
2018-11-28T11:33:53.693Z,14.63
2018-11-28T11:36:21.240Z,13.40
2018-11-28T11:38:48.700Z,16.40
2018-11-28T11:41:16.437Z,13.87
2018-11-28T11:43:43.891Z,13.63
2018-11-28T11:46:11.412Z,14.23
2018-11-28T11:48:39.046Z,16.23
2018-11-28T11:51:06.681Z,15.47
2018-11-28T11:53:34.247Z,14.67
2018-11-28T11:56:01.945Z,14.90
2018-11-28T11:58:29.523Z,14.17
2018-11-28T12:00:57.043Z,16.00
2018-11-28T12:03:24.855Z,14.27
2018-11-28T12:05:55.035Z,13.83
2018-11-28T12:08:22.911Z,14.23
2018-11-28T12:10:50.534Z,13.87
2018-11-28T12:13:18.112Z,14.93
2018-11-28T12:15:45.614Z,14.97
2018-11-28T12:18:13.365Z,14.53
2018-11-28T12:20:41.910Z,15.07
2018-11-28T12:23:09.573Z,14.13
2018-11-28T12:25:37.022Z,14.83
2018-11-28T12:28:05.809Z,15.30
2018-11-28T12:30:33.265Z,12.97
2018-11-28T12:33:00.858Z,14.57
2018-11-28T12:35:28.446Z,15.23
2018-11-28T12:37:56.108Z,15.20
2018-11-28T12:40:23.714Z,15.43
2018-11-28T12:42:52.046Z,14.60
2018-11-28T12:45:20.517Z,15.13
2018-11-28T12:47:48.840Z,14.13
2018-11-28T12:50:19.813Z,14.23
2018-11-28T12:52:47.475Z,14.40
2018-11-28T12:55:15.673Z,14.23
2018-11-28T12:57:43.254Z,16.47
2018-11-28T13:00:16.736Z,15.60
2018-11-28T13:02:44.346Z,16.80
2018-11-28T13:05:15.148Z,16.10
2018-11-28T13:07:42.720Z,14.70
2018-11-28T13:10:14.608Z,14.20
2018-11-28T13:12:42.577Z,14.77
2018-11-28T13:15:14.500Z,14.70
2018-11-28T13:17:42.078Z,16.73
2018-11-28T13:20:11.153Z,18.70
2018-11-28T13:22:38.846Z,14.53
2018-11-28T13:25:10.141Z,16.43
2018-11-28T13:27:37.783Z,16.50
2018-11-28T13:30:11.017Z,15.60
2018-11-28T13:32:38.826Z,15.97
2018-11-28T13:35:06.422Z,15.80
2018-11-28T13:37:34.147Z,14.90
2018-11-28T13:40:01.762Z,13.97
2018-11-28T13:42:29.431Z,14.43
2018-11-28T13:44:56.987Z,16.87
2018-11-28T13:47:25.233Z,15.10
2018-11-28T13:49:52.821Z,15.60
2018-11-28T13:52:21.085Z,15.93
2018-11-28T13:55:37.415Z,14.47
2018-11-28T13:57:16.415Z,15.60
2018-11-28T13:59:44.153Z,14.40
2018-11-28T14:02:11.851Z,13.93
2018-11-28T14:04:39.445Z,14.03
2018-11-28T14:07:06.989Z,14.60
2018-11-28T14:09:34.535Z,16.13
2018-11-28T14:12:02.086Z,15.63
2018-11-28T14:14:29.675Z,15.00
2018-11-28T14:16:57.177Z,15.27
2018-11-28T14:19:24.827Z,14.07
2018-11-28T14:21:52.594Z,15.53
2018-11-28T14:24:20.115Z,13.70
2018-11-28T14:26:47.773Z,15.07
2018-11-28T14:29:15.454Z,14.17
2018-11-28T14:31:43.325Z,14.83
2018-11-28T14:34:10.827Z,15.43
2018-11-28T14:36:38.461Z,13.83
2018-11-28T14:39:08.177Z,15.07
2018-11-28T14:41:35.727Z,13.97
2018-11-28T14:44:03.559Z,14.13
2018-11-28T14:46:31.417Z,14.07
2018-11-28T14:48:59.852Z,16.10
2018-11-28T14:51:26.931Z,14.97
2018-11-28T14:53:54.653Z,16.17
2018-11-28T14:56:22.348Z,14.80
2018-11-28T14:58:50.170Z,14.57
2018-11-28T15:01:17.982Z,13.80
2018-11-28T15:03:45.877Z,17.23
2018-11-28T15:06:18.594Z,16.23
2018-11-28T15:08:46.130Z,14.20
2018-11-28T15:11:13.803Z,18.00
2018-11-28T15:13:42.208Z,17.20
2018-11-28T15:16:09.898Z,13.77
2018-11-28T15:18:37.604Z,15.40
2018-11-28T15:21:06.802Z,14.63
2018-11-28T15:23:34.565Z,16.10
2018-11-28T15:26:02.278Z,14.13
2018-11-28T15:28:29.835Z,14.23
2018-11-28T15:30:57.546Z,13.43
2018-11-28T15:33:25.188Z,13.83
2018-11-28T15:35:52.748Z,14.27
2018-11-28T15:38:20.432Z,15.90
2018-11-28T15:40:48.049Z,13.93
2018-11-28T15:43:15.674Z,14.90
2018-11-28T15:45:43.189Z,14.27
2018-11-28T15:48:10.800Z,14.20
2018-11-28T15:50:38.444Z,13.30
2018-11-28T15:53:06.298Z,13.97
2018-11-28T15:55:33.986Z,13.57
2018-11-28T15:58:01.526Z,12.93
2018-11-28T16:00:29.172Z,14.30
2018-11-28T16:02:56.882Z,13.50
2018-11-28T16:05:24.524Z,13.00
2018-11-28T16:07:52.153Z,13.23
2018-11-28T16:10:25.301Z,14.03
2018-11-28T16:12:52.901Z,12.60
2018-11-28T16:15:31.934Z,13.37
2018-11-28T16:17:59.564Z,13.43
2018-11-28T16:20:27.117Z,14.13
2018-11-28T16:22:54.754Z,12.87
2018-11-28T16:25:22.409Z,12.90
2018-11-28T16:27:49.941Z,13.07
2018-11-28T16:30:17.583Z,12.77
2018-11-28T16:32:46.461Z,13.37
2018-11-28T16:35:15.426Z,13.07
2018-11-28T16:37:42.920Z,13.27
2018-11-28T16:40:15.695Z,15.47
2018-11-28T16:42:43.359Z,14.77
2018-11-28T16:45:19.738Z,13.47
2018-11-28T16:47:48.009Z,13.07
2018-11-28T16:50:16.221Z,13.17
2018-11-28T16:52:43.936Z,13.47
2018-11-28T16:55:13.786Z,13.23
2018-11-28T16:57:42.685Z,14.20
2018-11-28T17:00:11.999Z,13.07
2018-11-28T17:02:39.502Z,13.93
2018-11-28T17:05:08.837Z,14.30
2018-11-28T17:07:36.345Z,12.87
2018-11-28T17:10:04.484Z,13.03
2018-11-28T17:12:31.945Z,13.40
2018-11-28T17:14:59.799Z,12.83
2018-11-28T17:17:27.275Z,14.30
2018-11-28T17:19:54.793Z,14.30
2018-11-28T17:22:23.111Z,14.00
2018-11-28T17:24:50.730Z,13.63
2018-11-28T17:27:18.318Z,14.23
2018-11-28T17:29:45.878Z,13.93
2018-11-28T17:32:13.409Z,15.57
2018-11-28T17:34:40.942Z,16.07
2018-11-28T17:37:08.474Z,15.83
2018-11-28T17:39:36.275Z,14.00
2018-11-28T17:42:04.126Z,14.80
2018-11-28T17:44:31.624Z,14.73
2018-11-28T17:46:59.163Z,13.87
2018-11-28T17:49:28.092Z,14.23
2018-11-28T17:51:55.472Z,13.17
2018-11-28T17:54:22.977Z,14.87
2018-11-28T17:56:50.600Z,13.77
2018-11-28T17:59:18.170Z,15.23
2018-11-28T18:01:47.136Z,14.47
2018-11-28T18:04:14.633Z,14.13
2018-11-28T18:06:42.202Z,16.07
2018-11-28T18:09:10.411Z,15.63
2018-11-28T18:11:37.943Z,14.00
2018-11-28T18:14:06.292Z,14.50
2018-11-28T18:16:34.399Z,14.80
2018-11-28T18:19:02.777Z,14.43
2018-11-28T18:21:30.933Z,16.83
2018-11-28T18:23:58.459Z,15.00
2018-11-28T18:26:27.412Z,14.07
2018-11-28T18:28:55.171Z,14.60
2018-11-28T18:31:23.146Z,15.40
2018-11-28T18:33:50.965Z,14.47
2018-11-28T18:36:18.669Z,16.30
2018-11-28T18:38:46.586Z,14.70
2018-11-28T18:41:14.355Z,18.10
2018-11-28T18:43:41.972Z,16.23
2018-11-28T18:46:09.567Z,16.33
2018-11-28T18:48:37.227Z,15.83
2018-11-28T18:51:05.217Z,15.63
2018-11-28T18:53:33.255Z,16.77
2018-11-28T18:56:00.910Z,17.27
2018-11-28T18:58:28.645Z,15.77
2018-11-28T19:00:56.431Z,16.63
2018-11-28T19:03:24.398Z,17.57
2018-11-28T19:05:52.134Z,17.00
2018-11-28T19:08:19.860Z,14.90
2018-11-28T19:10:48.099Z,17.63
2018-11-28T19:13:15.544Z,16.87
2018-11-28T19:15:43.975Z,16.07
2018-11-28T19:18:13.005Z,15.63
2018-11-28T19:20:40.850Z,16.43
2018-11-28T19:25:50.407Z,16.20
2018-11-28T19:34:18.162Z,17.97
2018-11-28T19:36:43.558Z,17.10
2018-11-28T19:39:11.353Z,16.50
2018-11-28T19:41:39.864Z,17.73
2018-11-28T19:44:07.967Z,17.43
2018-11-28T19:46:35.582Z,15.03
2018-11-28T19:49:03.386Z,16.50
2018-11-28T19:51:31.863Z,17.23
2018-11-28T19:53:59.707Z,16.77
2018-11-28T19:56:27.925Z,15.33
2018-11-28T19:58:56.813Z,18.23
2018-11-28T20:01:25.152Z,16.47
2018-11-28T20:06:22.834Z,15.03
2018-11-28T20:08:51.410Z,14.53
2018-11-28T20:11:20.485Z,17.67
2018-11-28T20:13:48.520Z,16.17
2018-11-28T20:18:46.652Z,15.50
2018-11-28T20:21:14.901Z,14.30
2018-11-28T20:23:42.906Z,16.37
2018-11-28T20:26:10.680Z,15.90
2018-11-28T20:28:39.582Z,15.93
2018-11-28T20:31:07.864Z,16.77
2018-11-28T20:33:35.516Z,17.33
2018-11-28T20:36:03.459Z,15.40
2018-11-28T20:38:33.157Z,15.67
2018-11-28T20:41:00.798Z,16.40
2018-11-28T20:43:28.515Z,16.77
2018-11-28T20:45:56.189Z,13.80
2018-11-28T20:48:23.770Z,13.77
2018-11-28T20:50:51.624Z,16.63
2018-11-28T20:53:20.501Z,14.77
2018-11-28T20:55:48.214Z,17.13
2018-11-28T20:58:15.970Z,17.13
2018-11-28T21:00:43.706Z,13.77
2018-11-28T21:03:11.291Z,16.27
2018-11-28T21:05:38.935Z,16.40
2018-11-28T21:08:08.218Z,15.53
2018-11-28T21:10:36.939Z,16.60
2018-11-28T21:13:09.148Z,17.33
2018-11-28T21:15:36.829Z,16.83
2018-11-28T21:18:05.178Z,15.77
2018-11-28T21:20:33.013Z,14.97
2018-11-28T21:23:05.607Z,14.10
2018-11-28T21:25:34.911Z,15.00
2018-11-28T21:28:02.847Z,17.27
2018-11-28T21:30:30.551Z,17.13
2018-11-28T21:32:58.309Z,14.67
2018-11-28T21:35:29.877Z,14.13
2018-11-28T21:37:57.499Z,14.40
2018-11-28T21:40:25.536Z,14.73
2018-11-28T21:42:53.365Z,14.33
2018-11-28T21:45:23.214Z,16.63
2018-11-28T21:47:51.504Z,14.63
2018-11-28T21:50:19.420Z,13.67
2018-11-28T21:52:47.142Z,14.93
2018-11-28T21:55:16.975Z,14.77
2018-11-28T21:57:44.770Z,15.80
2018-11-28T22:00:17.654Z,14.00
2018-11-28T22:02:47.128Z,14.80
2018-11-28T22:05:16.557Z,15.20
2018-11-28T22:07:44.066Z,15.10
2018-11-28T22:10:14.497Z,14.07
2018-11-28T22:12:42.108Z,17.07
2018-11-28T22:15:12.721Z,15.60
2018-11-28T22:17:41.835Z,14.30
2018-11-28T22:20:10.241Z,14.97
2018-11-28T22:22:38.243Z,16.17
2018-11-28T22:25:12.397Z,15.47
2018-11-28T22:27:40.161Z,15.03
2018-11-28T22:30:10.945Z,14.73
2018-11-28T22:32:39.274Z,16.27
2018-11-28T22:35:07.224Z,16.07
2018-11-28T22:37:34.787Z,15.63
2018-11-28T22:40:13.647Z,15.17
2018-11-28T22:42:42.062Z,14.30
2018-11-28T22:45:12.637Z,14.60
2018-11-28T22:47:41.655Z,14.27
2018-11-28T22:50:11.906Z,15.53
2018-11-28T22:52:39.638Z,15.20
2018-11-28T22:55:10.349Z,16.63
2018-11-28T22:57:38.676Z,15.17
2018-11-28T23:00:13.258Z,13.70
2018-11-28T23:02:46.956Z,15.47
2018-11-28T23:05:14.487Z,14.77
2018-11-28T23:07:41.950Z,14.17
2018-11-28T23:10:09.675Z,15.30
2018-11-28T23:12:37.174Z,14.47
2018-11-28T23:15:05.344Z,16.27
2018-11-28T23:17:32.902Z,15.43
2018-11-28T23:20:00.624Z,15.00
2018-11-28T23:22:28.437Z,15.07
2018-11-28T23:24:55.994Z,15.53
2018-11-28T23:27:23.563Z,15.93
2018-11-28T23:29:51.458Z,14.60
2018-11-28T23:32:19.396Z,15.70
2018-11-28T23:34:47.405Z,15.03
2018-11-28T23:37:15.153Z,15.07
2018-11-28T23:39:42.783Z,14.57
2018-11-28T23:42:10.822Z,14.87
2018-11-28T23:44:38.455Z,15.83
2018-11-28T23:47:06.201Z,16.17
2018-11-28T23:49:34.004Z,14.87
2018-11-28T23:52:01.671Z,15.53
2018-11-28T23:54:29.545Z,15.37
2018-11-28T23:56:57.334Z,15.23
2018-11-28T23:59:24.962Z,15.60
